Time;durP1;ratioP1;P1;durP2;ratioP2;P2;SDS_P1;SDS_P2;PMS_P1;PMS_P2;Temp;Humidity;BMP_temperature;BMP_pressure;BME280_temperature;BME280_humidity;BME280_pressure;Samples;Min_cycle;Max_cycle;Signal;HPM_P1;HPM_P2
2023/08/22 00:00:44;;;;;;;16.13;5.82;;;18.70;99.90;;;;;;5039061;28;20112;-54
2023/08/22 00:03:10;;;;;;;11.43;6.63;;;18.70;99.90;;;;;;5033608;28;20053;-56
2023/08/22 00:05:35;;;;;;;15.10;6.63;;;18.70;99.90;;;;;;5032562;28;20029;-54
2023/08/22 00:08:04;;;;;;;14.95;6.47;;;18.60;99.90;;;;;;5032737;28;20033;-54
2023/08/22 00:10:30;;;;;;;10.02;6.68;;;18.60;99.90;;;;;;5032688;28;20033;-54
2023/08/22 00:12:56;;;;;;;12.25;6.40;;;18.60;99.90;;;;;;5031694;28;20068;-57
2023/08/22 00:15:22;;;;;;;13.55;6.95;;;18.70;99.90;;;;;;5038634;28;20057;-57
2023/08/22 00:17:48;;;;;;;13.73;6.00;;;18.70;99.90;;;;;;5037620;28;20033;-56
2023/08/22 00:20:14;;;;;;;17.48;6.30;;;18.60;99.90;;;;;;5044104;28;20037;-58
2023/08/22 00:22:40;;;;;;;17.83;7.10;;;18.70;99.90;;;;;;5031535;28;20083;-59
2023/08/22 00:25:06;;;;;;;15.57;6.65;;;18.70;99.90;;;;;;5031548;28;20033;-59
2023/08/22 00:27:32;;;;;;;13.50;6.57;;;18.80;99.90;;;;;;5032505;28;20127;-57
2023/08/22 00:29:58;;;;;;;12.18;6.55;;;18.80;99.90;;;;;;5032145;28;20029;-55
2023/08/22 00:32:24;;;;;;;15.10;6.13;;;18.90;99.90;;;;;;5028466;28;20029;-57
2023/08/22 00:34:49;;;;;;;17.35;7.05;;;18.80;99.90;;;;;;5044109;28;20633;-56
2023/08/22 00:37:15;;;;;;;12.75;5.63;;;18.90;99.90;;;;;;5036524;28;20029;-57
2023/08/22 00:39:41;;;;;;;19.25;6.88;;;18.90;99.90;;;;;;5035854;28;20037;-59
2023/08/22 00:42:06;;;;;;;11.65;6.70;;;18.80;99.90;;;;;;5034751;28;20036;-58
2023/08/22 00:44:32;;;;;;;15.70;6.13;;;18.80;99.90;;;;;;5039205;28;20037;-60
2023/08/22 00:46:58;;;;;;;11.27;6.15;;;18.70;99.90;;;;;;5041628;28;20025;-57
2023/08/22 00:49:24;;;;;;;13.30;6.40;;;18.70;99.90;;;;;;5041637;28;20029;-56
2023/08/22 00:51:50;;;;;;;20.60;7.05;;;18.60;99.90;;;;;;5042340;28;20496;-57
2023/08/22 00:54:17;;;;;;;13.93;6.45;;;18.60;99.90;;;;;;5038947;28;20040;-57
2023/08/22 00:56:43;;;;;;;8.60;6.97;;;18.60;99.90;;;;;;5032246;28;20044;-55
2023/08/22 00:59:09;;;;;;;9.35;5.60;;;18.50;99.90;;;;;;5036834;28;20040;-56
2023/08/22 01:01:35;;;;;;;13.65;7.30;;;18.50;99.90;;;;;;5031313;28;20396;-55
2023/08/22 01:04:00;;;;;;;12.30;6.45;;;18.50;99.90;;;;;;5044665;28;20025;-57
2023/08/22 01:06:37;;;;;;;11.20;5.93;;;18.50;99.90;;;;;;5038633;28;20502;-57
2023/08/22 01:09:14;;;;;;;18.40;6.60;;;18.50;99.90;;;;;;5031008;28;20498;-55
2023/08/22 01:11:44;;;;;;;15.60;6.38;;;18.50;99.90;;;;;;5032348;28;20119;-58
2023/08/22 01:14:13;;;;;;;14.80;6.35;;;18.50;99.90;;;;;;5032948;28;20419;-57
2023/08/22 01:16:40;;;;;;;16.20;6.30;;;18.50;99.90;;;;;;5027208;28;20040;-57
2023/08/22 01:19:07;;;;;;;11.65;5.63;;;18.50;99.90;;;;;;5033841;28;20475;-57
2023/08/22 01:21:35;;;;;;;17.08;7.00;;;18.50;99.90;;;;;;5030777;28;20506;-58
2023/08/22 01:24:02;;;;;;;14.13;6.43;;;18.50;99.90;;;;;;5030333;28;20041;-58
2023/08/22 01:26:28;;;;;;;10.93;6.88;;;18.40;99.90;;;;;;5042581;28;20060;-55
2023/08/22 01:29:00;;;;;;;13.70;6.53;;;18.40;99.90;;;;;;5033926;28;20063;-56
2023/08/22 01:31:39;;;;;;;15.43;6.60;;;18.30;99.90;;;;;;5035189;28;20111;-59
2023/08/22 01:34:13;;;;;;;11.65;6.50;;;18.40;99.90;;;;;;5039427;28;20529;-59
2023/08/22 01:36:38;;;;;;;16.15;5.97;;;18.30;99.90;;;;;;5039010;28;20083;-57
2023/08/22 01:39:07;;;;;;;13.35;6.25;;;18.30;99.90;;;;;;5033120;28;20033;-57
2023/08/22 01:41:33;;;;;;;18.27;6.88;;;18.30;99.90;;;;;;5036777;28;20459;-56
2023/08/22 01:44:00;;;;;;;11.52;7.35;;;18.20;99.90;;;;;;5034187;28;20175;-56
2023/08/22 01:46:25;;;;;;;15.63;7.13;;;18.20;99.90;;;;;;5034792;28;20491;-58
2023/08/22 01:48:51;;;;;;;12.35;6.22;;;18.20;99.90;;;;;;5037417;28;20123;-54
2023/08/22 01:51:16;;;;;;;12.90;6.93;;;18.20;99.90;;;;;;5036050;28;20376;-57
2023/08/22 01:53:42;;;;;;;12.15;7.10;;;18.10;99.90;;;;;;5034721;28;20032;-61
2023/08/22 01:56:07;;;;;;;18.05;6.93;;;18.10;99.90;;;;;;5031615;28;20025;-57
2023/08/22 01:58:33;;;;;;;12.10;7.13;;;18.00;99.90;;;;;;5041338;28;20067;-57
2023/08/22 02:00:58;;;;;;;16.08;8.20;;;18.00;99.90;;;;;;5041115;28;20029;-59
2023/08/22 02:03:24;;;;;;;13.52;6.78;;;18.00;99.90;;;;;;5039102;28;20037;-57
2023/08/22 02:05:49;;;;;;;14.82;8.20;;;18.00;99.90;;;;;;5037686;28;20033;-57
2023/08/22 02:08:15;;;;;;;17.35;7.68;;;18.00;99.90;;;;;;5041750;28;20108;-59
2023/08/22 02:10:40;;;;;;;11.00;7.07;;;18.00;99.90;;;;;;5047560;28;20124;-57
2023/08/22 02:13:06;;;;;;;16.30;7.55;;;17.90;99.90;;;;;;5038870;28;20120;-56
2023/08/22 02:15:31;;;;;;;18.52;8.32;;;17.90;99.90;;;;;;5039223;28;20070;-57
2023/08/22 02:17:57;;;;;;;12.70;8.40;;;17.80;99.90;;;;;;5038828;28;20120;-59
2023/08/22 02:20:23;;;;;;;14.82;8.65;;;17.80;99.90;;;;;;5041707;28;20064;-57
2023/08/22 02:22:48;;;;;;;18.40;8.73;;;17.80;99.90;;;;;;5045712;28;20040;-57
2023/08/22 02:25:14;;;;;;;15.25;7.68;;;17.70;99.90;;;;;;5037083;28;20083;-55
2023/08/22 02:27:39;;;;;;;18.55;7.97;;;17.70;99.90;;;;;;5036530;28;20515;-57
2023/08/22 02:30:08;;;;;;;16.02;8.05;;;17.70;99.90;;;;;;5036457;28;20768;-57
2023/08/22 02:32:33;;;;;;;17.15;7.97;;;17.60;99.90;;;;;;5031984;28;20521;-59
2023/08/22 02:34:59;;;;;;;23.15;9.68;;;17.60;99.90;;;;;;5035446;28;20112;-57
2023/08/22 02:37:25;;;;;;;18.52;8.75;;;17.60;99.90;;;;;;5043399;28;20025;-56
2023/08/22 02:39:50;;;;;;;17.63;8.98;;;17.60;99.90;;;;;;5038261;28;20132;-56
2023/08/22 02:42:16;;;;;;;15.82;8.70;;;17.60;99.90;;;;;;5039568;28;20045;-57
2023/08/22 02:44:41;;;;;;;27.50;8.93;;;17.50;99.90;;;;;;5038722;28;20037;-58
2023/08/22 02:47:07;;;;;;;20.13;8.45;;;17.50;99.90;;;;;;5040299;28;20025;-56
2023/08/22 02:49:32;;;;;;;12.00;8.20;;;17.50;99.90;;;;;;5041614;28;20033;-56
2023/08/22 02:51:58;;;;;;;17.08;7.80;;;17.50;99.90;;;;;;5045110;28;20033;-56
2023/08/22 02:54:23;;;;;;;17.90;8.63;;;17.40;99.90;;;;;;5041348;28;20384;-57
2023/08/22 02:56:49;;;;;;;27.05;9.73;;;17.40;99.90;;;;;;5037051;28;20037;-57
2023/08/22 02:59:16;;;;;;;22.52;8.90;;;17.40;99.90;;;;;;5036077;28;20037;-56
2023/08/22 03:01:42;;;;;;;17.58;9.05;;;17.40;99.90;;;;;;5043028;28;20502;-57
2023/08/22 03:04:07;;;;;;;21.10;8.52;;;17.30;99.90;;;;;;5034260;28;20055;-57
2023/08/22 03:06:33;;;;;;;19.98;9.60;;;17.30;99.90;;;;;;5036152;28;20037;-55
2023/08/22 03:08:58;;;;;;;14.98;9.07;;;17.30;99.90;;;;;;5034178;28;20760;-54
2023/08/22 03:11:24;;;;;;;20.15;9.20;;;17.30;99.90;;;;;;5046206;28;20299;-58
2023/08/22 03:13:49;;;;;;;19.02;9.88;;;17.30;99.90;;;;;;5033464;28;20377;-57
2023/08/22 03:16:15;;;;;;;13.43;8.52;;;17.20;99.90;;;;;;5034832;28;20036;-57
2023/08/22 03:18:41;;;;;;;18.58;8.98;;;17.20;99.90;;;;;;5039346;28;20044;-59
2023/08/22 03:21:07;;;;;;;17.15;9.25;;;17.20;99.90;;;;;;5032824;28;20499;-58
2023/08/22 03:23:32;;;;;;;20.58;8.88;;;17.20;99.90;;;;;;5034407;28;20108;-60
2023/08/22 03:25:59;;;;;;;14.82;9.32;;;17.10;99.90;;;;;;5038421;28;20052;-56
2023/08/22 03:28:26;;;;;;;16.48;10.80;;;17.10;99.90;;;;;;5037697;28;20029;-57
2023/08/22 03:30:59;;;;;;;16.27;9.68;;;17.10;99.90;;;;;;5033337;28;21456;-57
2023/08/22 03:33:25;;;;;;;16.75;9.30;;;17.10;99.90;;;;;;5034806;28;20026;-54
2023/08/22 03:35:52;;;;;;;20.48;9.43;;;17.10;99.90;;;;;;5033516;28;20395;-57
2023/08/22 03:38:18;;;;;;;21.92;9.77;;;17.00;99.90;;;;;;5029602;28;20075;-58
2023/08/22 03:40:43;;;;;;;19.02;9.73;;;17.00;99.90;;;;;;5033044;28;20515;-57
2023/08/22 03:43:09;;;;;;;15.48;8.63;;;17.00;99.90;;;;;;5035411;28;20031;-56
2023/08/22 03:45:34;;;;;;;18.20;9.80;;;17.00;99.90;;;;;;5039840;28;20033;-54
2023/08/22 03:48:03;;;;;;;19.25;9.48;;;17.00;99.90;;;;;;5029470;28;20174;-56
2023/08/22 03:50:30;;;;;;;16.30;9.25;;;17.00;99.90;;;;;;5029954;28;20373;-57
2023/08/22 03:52:56;;;;;;;18.42;9.75;;;17.00;99.90;;;;;;5032372;28;20059;-54
2023/08/22 03:55:21;;;;;;;24.85;9.32;;;16.90;99.90;;;;;;5032302;28;20030;-54
2023/08/22 03:57:47;;;;;;;19.90;10.13;;;17.00;99.90;;;;;;5032123;28;20029;-55
2023/08/22 04:00:13;;;;;;;22.40;9.98;;;17.00;99.90;;;;;;5030606;28;20026;-55
2023/08/22 04:02:38;;;;;;;20.75;11.75;;;16.90;99.90;;;;;;5035706;28;20052;-60
2023/08/22 04:05:04;;;;;;;28.15;11.45;;;16.90;99.90;;;;;;5034369;28;20479;-57
2023/08/22 04:07:30;;;;;;;28.40;11.60;;;16.90;99.90;;;;;;5028259;28;20025;-55
2023/08/22 04:09:56;;;;;;;22.33;10.60;;;16.90;99.90;;;;;;5036897;28;21451;-57
2023/08/22 04:12:21;;;;;;;17.33;9.70;;;16.90;99.90;;;;;;5033378;28;20028;-56
2023/08/22 04:14:47;;;;;;;17.08;9.57;;;16.80;99.90;;;;;;5035013;28;20021;-56
2023/08/22 04:17:12;;;;;;;20.50;10.00;;;16.80;99.90;;;;;;5033609;28;20060;-57
2023/08/22 04:19:41;;;;;;;19.42;9.65;;;16.80;99.90;;;;;;5043791;28;20040;-57
2023/08/22 04:22:06;;;;;;;17.75;8.80;;;16.90;99.90;;;;;;5030985;28;20044;-57
2023/08/22 04:24:32;;;;;;;22.42;10.73;;;16.80;99.90;;;;;;5036062;28;20022;-57
2023/08/22 04:26:57;;;;;;;26.15;9.10;;;16.80;99.90;;;;;;5036191;28;20391;-57
2023/08/22 04:29:23;;;;;;;20.77;10.77;;;16.80;99.90;;;;;;5033165;28;20037;-56
2023/08/22 04:31:49;;;;;;;27.05;10.43;;;16.80;99.90;;;;;;5038879;28;20033;-57
2023/08/22 04:34:15;;;;;;;20.00;11.30;;;16.80;99.90;;;;;;5035014;28;20036;-56
2023/08/22 04:36:40;;;;;;;18.55;12.00;;;16.80;99.90;;;;;;5033850;28;20021;-57
2023/08/22 04:39:06;;;;;;;23.70;12.00;;;16.80;99.90;;;;;;5033759;28;20037;-55
2023/08/22 04:41:32;;;;;;;22.88;11.20;;;16.80;99.90;;;;;;5039518;28;20550;-54
2023/08/22 04:43:57;;;;;;;22.42;12.57;;;16.80;99.90;;;;;;5034140;28;20029;-57
2023/08/22 04:46:23;;;;;;;25.67;12.70;;;16.80;99.90;;;;;;5034601;28;21953;-58
2023/08/22 04:48:48;;;;;;;22.05;12.32;;;16.90;99.90;;;;;;5034144;28;20043;-54
2023/08/22 04:51:14;;;;;;;22.83;12.50;;;16.80;99.90;;;;;;5034393;28;20577;-54
2023/08/22 04:53:40;;;;;;;22.83;12.27;;;16.80;99.90;;;;;;5034864;28;20033;-55
2023/08/22 04:56:06;;;;;;;24.02;12.15;;;16.90;99.90;;;;;;5036887;28;20034;-54
2023/08/22 04:58:31;;;;;;;24.02;12.65;;;16.90;99.90;;;;;;5038820;28;20510;-58
2023/08/22 05:00:57;;;;;;;22.70;12.45;;;16.90;99.90;;;;;;5035098;28;20514;-54
2023/08/22 05:03:23;;;;;;;19.17;12.52;;;17.00;99.90;;;;;;5032423;28;20407;-54
2023/08/22 05:05:49;;;;;;;22.05;13.05;;;17.00;99.90;;;;;;5035558;28;20022;-57
2023/08/22 05:08:15;;;;;;;20.75;12.70;;;17.00;99.90;;;;;;5027095;28;20033;-55
2023/08/22 05:10:41;;;;;;;21.60;12.52;;;17.10;99.90;;;;;;5029952;28;20031;-55
2023/08/22 05:13:06;;;;;;;31.77;13.43;;;17.10;99.90;;;;;;5031159;28;20116;-57
2023/08/22 05:15:32;;;;;;;25.38;13.43;;;17.20;99.90;;;;;;5027916;28;20128;-55
2023/08/22 05:17:57;;;;;;;23.02;12.52;;;17.20;99.90;;;;;;5035157;28;20045;-57
2023/08/22 05:20:23;;;;;;;29.73;12.63;;;17.20;99.90;;;;;;5031515;28;20035;-59
2023/08/22 05:22:48;;;;;;;33.45;12.95;;;17.30;99.90;;;;;;5026364;28;20027;-58
2023/08/22 05:25:14;;;;;;;25.60;13.27;;;17.30;99.90;;;;;;5030996;28;20053;-57
2023/08/22 05:27:39;;;;;;;29.20;12.15;;;17.30;99.90;;;;;;5036766;28;20406;-59
2023/08/22 05:30:06;;;;;;;25.70;13.23;;;17.40;99.90;;;;;;5039773;28;20109;-57
2023/08/22 05:32:32;;;;;;;19.52;11.65;;;17.40;99.90;;;;;;5038147;28;20255;-58
2023/08/22 05:34:58;;;;;;;27.55;13.32;;;17.50;99.90;;;;;;5031700;28;20083;-57
2023/08/22 05:37:24;;;;;;;30.77;13.18;;;17.50;99.90;;;;;;5038452;28;20021;-57
2023/08/22 05:39:50;;;;;;;23.17;14.77;;;17.50;99.90;;;;;;5036342;28;20049;-57
2023/08/22 05:42:16;;;;;;;26.55;14.63;;;17.50;99.90;;;;;;5038188;28;20479;-57
2023/08/22 05:44:41;;;;;;;27.58;16.05;;;17.60;99.90;;;;;;5041977;28;20088;-58
2023/08/22 05:47:08;;;;;;;24.63;14.05;;;17.60;99.90;;;;;;5036965;28;20030;-57
2023/08/22 05:49:34;;;;;;;34.22;15.15;;;17.70;99.90;;;;;;5035778;28;20541;-59
2023/08/22 05:52:04;;;;;;;29.00;13.10;;;17.80;99.90;;;;;;5043132;28;20037;-56
2023/08/22 05:54:31;;;;;;;20.30;11.55;;;17.90;99.90;;;;;;5033404;28;20467;-57
2023/08/22 05:56:57;;;;;;;28.70;12.50;;;17.90;99.90;;;;;;5041048;28;20491;-58
2023/08/22 05:59:23;;;;;;;27.27;15.00;;;18.00;99.90;;;;;;5032891;28;20091;-57
2023/08/22 06:01:49;;;;;;;32.65;14.10;;;18.00;99.90;;;;;;5041795;28;20036;-57
2023/08/22 06:04:18;;;;;;;28.58;14.40;;;18.10;99.90;;;;;;5039946;28;20040;-57
2023/08/22 06:06:44;;;;;;;23.08;13.38;;;18.20;99.90;;;;;;5038954;28;20030;-57
2023/08/22 06:09:10;;;;;;;20.67;11.73;;;18.30;99.90;;;;;;5036411;28;20036;-58
2023/08/22 06:11:35;;;;;;;23.20;10.50;;;18.40;99.90;;;;;;5036532;28;20033;-57
2023/08/22 06:14:01;;;;;;;20.17;10.18;;;18.60;99.90;;;;;;5032778;28;21637;-55
2023/08/22 06:16:26;;;;;;;40.90;17.40;;;18.60;99.90;;;;;;5040841;28;20099;-58
2023/08/22 06:18:52;;;;;;;20.73;12.55;;;18.70;99.90;;;;;;5030924;28;20037;-58
2023/08/22 06:21:17;;;;;;;33.15;13.35;;;18.80;99.90;;;;;;5038026;28;20386;-57
2023/08/22 06:23:43;;;;;;;25.08;11.65;;;18.80;99.90;;;;;;5039328;28;20026;-57
2023/08/22 06:26:13;;;;;;;31.60;13.30;;;18.90;99.90;;;;;;5046724;28;20095;-58
2023/08/22 06:28:39;;;;;;;18.90;11.40;;;18.90;99.90;;;;;;5046210;28;20036;-56
2023/08/22 06:31:05;;;;;;;24.65;11.60;;;19.00;99.90;;;;;;5038497;28;20029;-57
2023/08/22 06:33:31;;;;;;;23.90;10.90;;;19.10;99.90;;;;;;5035120;28;20479;-57
2023/08/22 06:35:57;;;;;;;24.95;12.60;;;19.10;99.90;;;;;;5032029;28;20033;-57
2023/08/22 06:38:22;;;;;;;21.60;12.77;;;19.20;99.90;;;;;;5031058;28;20112;-59
2023/08/22 06:40:48;;;;;;;26.63;12.10;;;19.30;99.90;;;;;;5035879;28;20108;-54
2023/08/22 06:43:15;;;;;;;27.48;13.60;;;19.40;99.90;;;;;;5037644;28;20024;-59
2023/08/22 06:45:41;;;;;;;26.02;11.32;;;19.40;99.90;;;;;;5037040;28;20029;-58
2023/08/22 06:48:07;;;;;;;30.00;12.63;;;19.50;99.90;;;;;;5043681;28;20025;-59
2023/08/22 06:50:32;;;;;;;31.92;11.68;;;19.60;99.90;;;;;;5039939;28;20025;-59
2023/08/22 06:52:58;;;;;;;22.55;10.30;;;19.70;99.90;;;;;;5038312;28;20136;-58
2023/08/22 06:55:24;;;;;;;18.80;10.63;;;19.70;99.90;;;;;;5044170;28;20036;-58
2023/08/22 06:57:50;;;;;;;28.58;13.68;;;19.80;99.90;;;;;;5044780;28;20116;-60
2023/08/22 07:00:16;;;;;;;27.27;12.35;;;19.90;99.90;;;;;;5041589;28;20030;-59
2023/08/22 07:02:44;;;;;;;25.48;11.93;;;20.00;99.90;;;;;;5045103;28;20021;-58
2023/08/22 07:05:11;;;;;;;25.27;12.27;;;20.10;99.90;;;;;;5045116;28;20498;-58
2023/08/22 07:07:39;;;;;;;23.85;12.98;;;20.10;99.90;;;;;;5044465;28;20021;-58
2023/08/22 07:10:06;;;;;;;25.33;11.63;;;20.20;99.90;;;;;;5041213;28;20014;-58
2023/08/22 07:12:32;;;;;;;31.55;13.73;;;20.20;99.90;;;;;;5046475;28;20454;-58
2023/08/22 07:14:58;;;;;;;24.55;12.35;;;20.30;99.90;;;;;;5039028;28;20021;-59
2023/08/22 07:17:23;;;;;;;22.30;10.65;;;20.30;99.90;;;;;;5041011;28;20030;-57
2023/08/22 07:19:49;;;;;;;26.55;11.88;;;20.30;99.90;;;;;;5040867;28;20061;-60
2023/08/22 07:22:14;;;;;;;36.20;14.65;;;20.30;99.90;;;;;;5043621;28;20083;-60
2023/08/22 07:24:40;;;;;;;26.42;12.65;;;20.40;99.90;;;;;;5047369;28;20022;-58
2023/08/22 07:27:09;;;;;;;22.17;11.35;;;20.50;99.90;;;;;;5064089;28;20035;-60
2023/08/22 07:29:35;;;;;;;26.17;11.90;;;20.50;99.90;;;;;;5049005;28;20084;-59
2023/08/22 07:32:01;;;;;;;27.98;11.77;;;20.70;99.90;;;;;;5045785;28;20052;-59
2023/08/22 07:34:26;;;;;;;30.20;11.77;;;20.70;99.90;;;;;;5052025;28;20526;-59
2023/08/22 07:36:52;;;;;;;32.53;12.32;;;20.80;99.90;;;;;;5043187;28;20033;-57
2023/08/22 07:39:21;;;;;;;31.88;13.27;;;20.90;99.90;;;;;;5048908;28;20032;-58
2023/08/22 07:41:46;;;;;;;28.90;11.07;;;21.00;99.90;;;;;;5043677;28;20034;-58
2023/08/22 07:44:13;;;;;;;23.05;11.55;;;21.10;99.90;;;;;;5046873;28;20083;-61
2023/08/22 07:46:39;;;;;;;31.83;12.57;;;21.10;99.90;;;;;;5040729;28;20381;-56
2023/08/22 07:49:04;;;;;;;23.70;11.65;;;21.20;99.90;;;;;;5047604;28;20162;-59
2023/08/22 07:51:30;;;;;;;24.95;12.55;;;21.20;99.90;;;;;;5042651;28;20070;-59
2023/08/22 07:53:56;;;;;;;28.13;11.65;;;21.30;99.90;;;;;;5039804;28;20063;-61
2023/08/22 07:56:22;;;;;;;32.30;10.80;;;21.40;99.90;;;;;;5040015;28;20033;-56
2023/08/22 07:58:48;;;;;;;24.52;12.32;;;21.50;99.90;;;;;;5040209;28;20029;-61
2023/08/22 08:01:14;;;;;;;28.27;11.38;;;21.60;99.90;;;;;;5032534;28;20106;-60
2023/08/22 08:03:40;;;;;;;26.92;11.18;;;21.70;99.90;;;;;;5038108;28;20499;-57
2023/08/22 08:06:05;;;;;;;20.85;8.93;;;21.70;99.90;;;;;;5036564;28;20078;-59
2023/08/22 08:08:31;;;;;;;24.20;9.65;;;21.80;99.90;;;;;;5038748;28;20034;-57
2023/08/22 08:10:57;;;;;;;21.13;8.40;;;21.90;99.90;;;;;;5038130;28;20029;-60
2023/08/22 08:13:22;;;;;;;20.20;8.95;;;22.00;99.90;;;;;;5041802;28;20515;-58
2023/08/22 08:15:49;;;;;;;26.70;10.35;;;22.20;99.90;;;;;;5040606;28;20108;-58
2023/08/22 08:18:15;;;;;;;24.25;9.73;;;22.20;99.90;;;;;;5037651;28;20033;-59
2023/08/22 08:20:41;;;;;;;20.27;8.90;;;22.30;99.90;;;;;;5037474;28;20040;-58
2023/08/22 08:23:07;;;;;;;29.25;9.63;;;22.30;99.90;;;;;;5041541;28;20027;-58
2023/08/22 08:25:32;;;;;;;20.17;10.15;;;22.40;99.90;;;;;;5039226;28;20104;-63
2023/08/22 08:27:58;;;;;;;21.70;9.32;;;22.40;99.90;;;;;;5038312;28;20025;-61
2023/08/22 08:30:24;;;;;;;21.63;8.85;;;22.40;99.90;;;;;;5032512;28;20029;-56
2023/08/22 08:32:49;;;;;;;27.60;8.55;;;22.40;99.90;;;;;;5037235;28;20042;-59
2023/08/22 08:35:15;;;;;;;18.50;8.48;;;22.50;99.90;;;;;;5043477;28;20104;-61
2023/08/22 08:37:41;;;;;;;19.13;8.30;;;22.60;99.90;;;;;;5043296;28;20499;-60
2023/08/22 08:40:08;;;;;;;20.10;8.23;;;22.60;99.90;;;;;;5040430;28;20022;-59
2023/08/22 08:42:38;;;;;;;20.17;7.32;;;22.70;99.90;;;;;;5044618;28;20032;-57
2023/08/22 08:45:05;;;;;;;20.48;7.10;;;22.70;99.90;;;;;;5037513;28;20038;-58
2023/08/22 08:47:36;;;;;;;17.42;7.72;;;22.80;99.90;;;;;;5037016;28;20028;-59
2023/08/22 08:50:04;;;;;;;20.20;7.32;;;22.70;99.90;;;;;;5041450;28;20132;-58
2023/08/22 08:52:30;;;;;;;15.18;7.93;;;22.80;99.90;;;;;;5037575;28;20108;-59
2023/08/22 08:54:56;;;;;;;13.48;7.05;;;23.00;99.90;;;;;;5040549;28;20109;-61
2023/08/22 08:57:22;;;;;;;21.73;7.07;;;23.00;99.90;;;;;;5045457;28;20041;-58
2023/08/22 08:59:48;;;;;;;16.27;6.78;;;23.10;99.90;;;;;;5038982;28;20497;-58
2023/08/22 09:02:17;;;;;;;15.40;6.97;;;23.10;99.90;;;;;;5041277;28;20099;-59
2023/08/22 09:04:43;;;;;;;22.63;6.88;;;23.20;99.90;;;;;;5036305;28;20014;-56
2023/08/22 09:07:09;;;;;;;19.08;8.23;;;23.20;99.90;;;;;;5044459;28;20032;-60
2023/08/22 09:09:36;;;;;;;17.92;6.53;;;23.20;99.90;;;;;;5045111;28;20158;-58
2023/08/22 09:12:10;;;;;;;15.52;6.85;;;23.30;99.90;;;;;;5037190;28;20398;-60
2023/08/22 09:14:47;;;;;;;13.57;5.88;;;23.30;99.90;;;;;;5043198;28;20659;-59
2023/08/22 09:17:18;;;;;;;15.20;5.25;;;23.40;99.90;;;;;;5039324;28;20103;-58
2023/08/22 09:19:44;;;;;;;13.95;5.20;;;23.40;99.90;;;;;;5039653;28;20458;-59
2023/08/22 09:22:14;;;;;;;12.20;5.18;;;23.70;99.90;;;;;;5044027;28;20053;-60
2023/08/22 09:24:53;;;;;;;18.67;5.75;;;23.90;99.90;;;;;;5044356;28;20083;-59
2023/08/22 09:27:26;;;;;;;17.30;5.00;;;24.00;99.90;;;;;;5037971;28;20538;-60
2023/08/22 09:29:52;;;;;;;11.68;4.38;;;24.20;99.90;;;;;;5036955;28;20060;-59
2023/08/22 09:32:22;;;;;;;18.65;5.65;;;24.50;99.90;;;;;;5050542;28;20033;-59
2023/08/22 09:34:55;;;;;;;11.68;6.28;;;24.80;99.90;;;;;;5047333;28;20113;-59
2023/08/22 09:37:34;;;;;;;19.33;6.55;;;24.50;99.90;;;;;;5041304;28;20057;-57
2023/08/22 09:40:03;;;;;;;22.02;6.20;;;24.60;99.90;;;;;;5037233;28;20497;-59
2023/08/22 09:42:29;;;;;;;19.58;6.80;;;24.70;99.90;;;;;;5040724;28;20442;-61
2023/08/22 09:44:58;;;;;;;11.38;4.78;;;24.80;99.90;;;;;;5036735;28;20028;-59
2023/08/22 09:47:30;;;;;;;12.73;5.25;;;24.90;99.90;;;;;;5036931;28;20030;-61
2023/08/22 09:50:04;;;;;;;21.58;5.90;;;24.90;99.90;;;;;;5040805;28;20025;-60
2023/08/22 09:52:31;;;;;;;16.63;5.45;;;24.90;99.90;;;;;;5049493;28;20060;-58
2023/08/22 09:54:57;;;;;;;15.63;4.95;;;25.00;99.90;;;;;;5043647;28;20038;-60
2023/08/22 09:57:27;;;;;;;16.27;5.05;;;25.20;99.90;;;;;;5038379;28;20045;-60
2023/08/22 09:59:53;;;;;;;14.43;4.78;;;25.30;99.90;;;;;;5048090;28;20522;-59
2023/08/22 10:02:19;;;;;;;13.13;4.95;;;25.30;99.90;;;;;;5039299;28;20025;-56
2023/08/22 10:04:46;;;;;;;17.92;5.13;;;25.40;99.90;;;;;;5047936;28;20041;-60
2023/08/22 10:07:12;;;;;;;15.00;5.15;;;25.40;99.90;;;;;;5039287;28;20057;-60
2023/08/22 10:09:39;;;;;;;18.50;4.18;;;25.30;99.90;;;;;;5035086;28;20069;-58
2023/08/22 10:12:08;;;;;;;11.13;3.90;;;25.50;99.90;;;;;;5041309;28;20078;-58
2023/08/22 10:14:39;;;;;;;13.38;4.57;;;25.60;99.90;;;;;;5040117;28;20026;-58
2023/08/22 10:17:05;;;;;;;12.77;4.13;;;25.90;99.90;;;;;;5044332;28;20111;-59
2023/08/22 10:19:31;;;;;;;12.88;4.93;;;26.10;99.90;;;;;;5039120;28;20036;-58
2023/08/22 10:22:12;;;;;;;12.95;3.70;;;26.00;99.90;;;;;;5042788;28;20021;-59
2023/08/22 10:24:39;;;;;;;18.85;4.82;;;26.10;99.90;;;;;;5048218;28;20506;-61
2023/08/22 10:27:07;;;;;;;19.42;4.57;;;26.30;99.90;;;;;;5043488;28;20066;-61
2023/08/22 10:29:47;;;;;;;13.93;4.68;;;26.10;99.90;;;;;;5037424;28;20029;-59
2023/08/22 10:32:19;;;;;;;9.00;4.00;;;26.20;99.90;;;;;;5049545;28;20043;-59
2023/08/22 10:34:44;;;;;;;11.38;3.53;;;26.30;99.90;;;;;;5050951;28;20051;-59
2023/08/22 10:37:18;;;;;;;19.85;4.25;;;26.60;99.90;;;;;;5057058;28;20025;-61
2023/08/22 10:39:45;;;;;;;16.42;4.90;;;26.60;99.90;;;;;;5043779;28;20031;-58
2023/08/22 10:42:17;;;;;;;16.77;4.18;;;26.40;99.90;;;;;;5049815;28;20028;-58
2023/08/22 10:44:47;;;;;;;10.45;4.15;;;26.40;99.90;;;;;;5046394;28;20116;-59
2023/08/22 10:47:17;;;;;;;13.07;4.50;;;26.50;99.90;;;;;;5048722;28;20025;-59
2023/08/22 10:49:47;;;;;;;11.73;4.43;;;26.40;99.90;;;;;;5044544;28;20032;-58
2023/08/22 10:52:13;;;;;;;7.28;4.10;;;26.40;99.90;;;;;;5046829;28;20064;-59
2023/08/22 10:55:00;;;;;;;11.88;3.90;;;26.40;99.90;;;;;;5050318;28;20025;-59
2023/08/22 10:57:31;;;;;;;9.70;3.42;;;26.50;99.90;;;;;;5044390;28;20040;-60
2023/08/22 11:00:00;;;;;;;8.52;2.97;;;26.40;99.90;;;;;;5043162;28;20444;-59
2023/08/22 11:02:28;;;;;;;17.10;4.03;;;26.40;99.90;;;;;;5046112;28;20597;-58
2023/08/22 11:04:56;;;;;;;7.10;3.78;;;26.30;99.90;;;;;;5044174;28;20033;-59
2023/08/22 11:07:25;;;;;;;7.15;2.92;;;26.20;99.90;;;;;;5039631;28;20105;-58
2023/08/22 11:09:50;;;;;;;7.40;2.70;;;26.20;99.90;;;;;;5046161;28;20021;-60
2023/08/22 11:12:20;;;;;;;12.43;3.08;;;26.30;99.90;;;;;;5039569;28;20610;-58
2023/08/22 11:14:49;;;;;;;10.55;3.10;;;26.20;99.90;;;;;;5043054;28;20391;-59
2023/08/22 11:17:16;;;;;;;10.73;3.17;;;26.40;99.90;;;;;;5039742;28;20075;-61
2023/08/22 11:19:42;;;;;;;7.07;3.25;;;26.30;99.90;;;;;;5052760;28;20024;-57
2023/08/22 11:22:08;;;;;;;12.18;3.40;;;26.30;99.90;;;;;;5039959;28;20116;-59
2023/08/22 11:24:33;;;;;;;12.68;5.10;;;26.30;99.90;;;;;;5040495;28;20483;-62
2023/08/22 11:27:05;;;;;;;8.65;3.53;;;26.40;99.90;;;;;;5040336;28;20074;-56
2023/08/22 11:29:42;;;;;;;12.57;4.00;;;26.50;99.90;;;;;;5047231;28;20083;-58
2023/08/22 11:32:34;;;;;;;9.80;3.38;;;26.70;99.90;;;;;;5042253;28;20025;-60
2023/08/22 11:35:07;;;;;;;9.25;3.13;;;26.90;99.90;;;;;;5043541;28;20193;-59
2023/08/22 11:37:37;;;;;;;9.07;3.38;;;27.00;99.90;;;;;;5033017;28;20037;-59
2023/08/22 11:40:04;;;;;;;14.18;3.10;;;26.80;99.90;;;;;;5033810;28;20036;-59
2023/08/22 11:42:32;;;;;;;8.38;3.50;;;26.80;99.90;;;;;;5041465;28;20028;-59
2023/08/22 11:45:04;;;;;;;12.13;3.85;;;26.80;99.90;;;;;;5038921;28;20041;-58
2023/08/22 11:47:42;;;;;;;13.93;2.75;;;26.70;99.90;;;;;;5043726;28;20025;-59
2023/08/22 11:50:18;;;;;;;7.50;2.63;;;26.90;99.90;;;;;;5042450;28;20114;-59
2023/08/22 11:52:46;;;;;;;11.07;3.13;;;27.00;99.90;;;;;;5045910;28;20029;-55
2023/08/22 11:55:15;;;;;;;10.63;2.85;;;27.20;99.90;;;;;;5040115;28;20030;-59
2023/08/22 11:57:43;;;;;;;12.45;2.47;;;27.50;99.90;;;;;;5046764;28;20016;-58
2023/08/22 12:00:13;;;;;;;8.43;2.97;;;27.80;99.90;;;;;;5042010;28;20553;-58
2023/08/22 12:02:51;;;;;;;7.03;2.55;;;28.20;99.90;;;;;;5042672;28;20021;-56
2023/08/22 12:05:30;;;;;;;7.80;2.40;;;28.10;99.90;;;;;;5048256;28;20024;-62
2023/08/22 12:08:20;;;;;;;9.73;3.47;;;28.00;99.90;;;;;;5036554;28;20095;-58
2023/08/22 12:10:50;;;;;;;7.80;2.92;;;27.80;99.90;;;;;;5044247;28;20038;-60
2023/08/22 12:13:18;;;;;;;7.53;2.22;;;28.00;99.90;;;;;;5039550;28;20033;-60
2023/08/22 12:15:44;;;;;;;4.97;2.47;;;28.30;99.90;;;;;;5043316;28;20174;-57
2023/08/22 12:18:10;;;;;;;9.93;3.10;;;28.70;99.90;;;;;;5042698;28;20096;-57
2023/08/22 12:20:38;;;;;;;9.32;2.55;;;29.10;99.90;;;;;;5045794;28;20115;-58
2023/08/22 12:23:05;;;;;;;10.23;2.17;;;29.40;99.90;;;;;;5037477;28;20472;-59
2023/08/22 12:25:30;;;;;;;9.82;2.85;;;29.50;99.90;;;;;;5041958;28;20029;-60
2023/08/22 12:27:56;;;;;;;6.15;2.50;;;29.70;99.90;;;;;;5041228;28;20028;-58
2023/08/22 12:30:21;;;;;;;8.20;2.75;;;29.40;99.90;;;;;;5043937;28;20043;-60
2023/08/22 12:32:47;;;;;;;10.05;2.47;;;29.10;99.90;;;;;;5045924;28;20024;-58
2023/08/22 12:35:13;;;;;;;6.78;3.20;;;29.10;99.90;;;;;;5039402;28;20476;-62